Time;durP1;ratioP1;P1;durP2;ratioP2;P2;SDS_P1;SDS_P2;PMS_P1;PMS_P2;Temp;Humidity;BMP_temperature;BMP_pressure;BME280_temperature;BME280_humidity;BME280_pressure;Samples;Min_cycle;Max_cycle;Signal;HPM_P1;HPM_P2
2022/02/16 00:00:56;;;;;;;10.37;7.50;;;;;;;;;;5002506;28;20038;-57
2022/02/16 00:03:21;;;;;;;10.40;7.80;;;;;;;;;;5002093;28;20339;-57
2022/02/16 00:05:47;;;;;;;9.07;7.00;;;;;;;;;;5001998;28;20296;-57
2022/02/16 00:08:12;;;;;;;10.63;7.93;;;;;;;;;;5002318;28;20034;-56
2022/02/16 00:10:37;;;;;;;9.10;7.53;;;;;;;;;;5002346;28;20029;-56
2022/02/16 00:13:02;;;;;;;9.30;7.40;;;;;;;;;;5001804;28;20026;-56
2022/02/16 00:15:28;;;;;;;8.87;6.97;;;;;;;;;;5002163;28;20028;-57
2022/02/16 00:17:54;;;;;;;9.82;7.82;;;;;;;;;;5002091;28;20339;-57
2022/02/16 00:20:19;;;;;;;11.15;8.43;;;;;;;;;;5001626;28;20030;-57
2022/02/16 00:22:44;;;;;;;11.03;8.10;;;;;;;;;;5002220;28;20211;-57
2022/02/16 00:25:10;;;;;;;10.03;7.83;;;;;;;;;;5001957;28;20304;-57
2022/02/16 00:27:35;;;;;;;9.50;7.57;;;;;;;;;;4996629;28;20261;-58
2022/02/16 00:30:00;;;;;;;9.52;7.75;;;;;;;;;;4990874;28;20529;-55
2022/02/16 00:32:26;;;;;;;11.27;7.87;;;;;;;;;;5001888;28;20026;-57
2022/02/16 00:34:51;;;;;;;11.65;8.25;;;;;;;;;;4986462;28;20332;-56
2022/02/16 00:37:16;;;;;;;11.73;8.13;;;;;;;;;;5000810;28;20041;-57
2022/02/16 00:39:41;;;;;;;11.57;8.10;;;;;;;;;;4964977;28;20053;-57
2022/02/16 00:42:07;;;;;;;10.45;7.70;;;;;;;;;;4991136;28;20315;-56
2022/02/16 00:44:32;;;;;;;10.85;7.82;;;;;;;;;;5001727;28;20062;-56
2022/02/16 00:46:57;;;;;;;9.93;7.97;;;;;;;;;;5010555;28;20042;-56
2022/02/16 00:49:22;;;;;;;11.53;7.83;;;;;;;;;;4997881;28;20324;-56
2022/02/16 00:51:48;;;;;;;9.90;7.83;;;;;;;;;;5001526;28;20056;-57
2022/02/16 00:54:13;;;;;;;10.47;8.27;;;;;;;;;;4991626;28;20285;-57
2022/02/16 00:56:40;;;;;;;11.17;8.20;;;;;;;;;;4995187;28;20276;-57
2022/02/16 00:59:05;;;;;;;10.45;7.75;;;;;;;;;;5001396;28;20026;-57
2022/02/16 01:01:30;;;;;;;11.73;8.05;;;;;;;;;;4980523;28;20015;-57
2022/02/16 01:03:55;;;;;;;11.70;7.83;;;;;;;;;;4989259;28;20547;-55
2022/02/16 01:06:21;;;;;;;10.30;7.90;;;;;;;;;;5001463;28;20030;-57
2022/02/16 01:08:46;;;;;;;11.00;8.17;;;;;;;;;;4986729;28;20029;-57
2022/02/16 01:11:11;;;;;;;11.43;7.93;;;;;;;;;;4983392;28;20026;-56
2022/02/16 01:13:36;;;;;;;10.57;7.90;;;;;;;;;;4995925;28;20514;-54
2022/02/16 01:16:02;;;;;;;10.60;8.03;;;;;;;;;;4990794;28;20268;-55
2022/02/16 01:18:27;;;;;;;10.93;8.10;;;;;;;;;;5001334;28;20545;-57
2022/02/16 01:20:52;;;;;;;11.77;8.13;;;;;;;;;;5000664;28;20037;-57
2022/02/16 01:23:17;;;;;;;10.87;7.83;;;;;;;;;;5001260;28;20014;-57
2022/02/16 01:25:43;;;;;;;10.90;8.07;;;;;;;;;;5001346;28;20026;-56
2022/02/16 01:28:08;;;;;;;9.87;8.03;;;;;;;;;;5000652;28;20272;-55
2022/02/16 01:30:33;;;;;;;12.13;8.37;;;;;;;;;;5000986;28;20703;-57
2022/02/16 01:32:58;;;;;;;10.37;7.57;;;;;;;;;;5000896;28;20645;-56
2022/02/16 01:35:24;;;;;;;9.03;7.50;;;;;;;;;;5000480;28;20308;-57
2022/02/16 01:37:49;;;;;;;10.40;7.88;;;;;;;;;;5001111;28;20006;-57
2022/02/16 01:40:14;;;;;;;9.60;7.47;;;;;;;;;;5001057;28;20416;-56
2022/02/16 01:42:39;;;;;;;11.00;8.53;;;;;;;;;;5000917;28;20455;-56
2022/02/16 01:45:05;;;;;;;11.07;8.00;;;;;;;;;;4983882;28;20456;-57
2022/02/16 01:47:30;;;;;;;10.20;7.65;;;;;;;;;;4979401;28;20300;-57
2022/02/16 01:49:55;;;;;;;9.57;7.63;;;;;;;;;;5001437;28;20061;-55
2022/02/16 01:52:20;;;;;;;11.40;8.27;;;;;;;;;;5001037;28;20123;-57
2022/02/16 01:54:46;;;;;;;9.52;7.30;;;;;;;;;;5001007;28;20077;-57
2022/02/16 01:57:11;;;;;;;10.57;8.13;;;;;;;;;;4999766;28;20117;-57
2022/02/16 01:59:37;;;;;;;11.07;8.23;;;;;;;;;;5000918;28;20044;-57
2022/02/16 02:02:02;;;;;;;11.27;8.13;;;;;;;;;;5000750;28;20363;-56
2022/02/16 02:04:27;;;;;;;11.52;9.27;;;;;;;;;;5000415;28;20018;-55
2022/02/16 02:06:53;;;;;;;10.40;8.03;;;;;;;;;;5000879;28;20505;-57
2022/02/16 02:09:18;;;;;;;11.35;8.20;;;;;;;;;;5000261;28;20747;-55
2022/02/16 02:11:44;;;;;;;9.57;7.43;;;;;;;;;;5002207;28;20109;-57
2022/02/16 02:14:09;;;;;;;10.38;8.23;;;;;;;;;;5004483;28;20036;-57
2022/02/16 02:16:38;;;;;;;11.02;8.38;;;;;;;;;;5004082;28;20100;-57
2022/02/16 02:19:03;;;;;;;12.57;8.65;;;;;;;;;;5003782;28;20037;-56
2022/02/16 02:21:29;;;;;;;10.23;7.82;;;;;;;;;;5004121;28;20026;-57
2022/02/16 02:23:55;;;;;;;11.23;8.30;;;;;;;;;;5004260;28;20428;-56
2022/02/16 02:26:20;;;;;;;11.18;8.18;;;;;;;;;;5004234;28;20353;-54
2022/02/16 02:28:45;;;;;;;10.03;8.13;;;;;;;;;;5003782;28;20033;-56
2022/02/16 02:31:11;;;;;;;10.68;8.32;;;;;;;;;;5003932;28;20076;-56
2022/02/16 02:33:38;;;;;;;13.05;8.45;;;;;;;;;;5003801;28;20507;-56
2022/02/16 02:36:05;;;;;;;11.30;8.27;;;;;;;;;;5003364;28;20017;-57
2022/02/16 02:38:30;;;;;;;10.43;8.55;;;;;;;;;;5003788;28;20047;-56
2022/02/16 02:40:57;;;;;;;11.57;8.57;;;;;;;;;;5004079;28;20021;-56
2022/02/16 02:43:22;;;;;;;10.73;8.13;;;;;;;;;;5003679;28;20365;-58
2022/02/16 02:45:48;;;;;;;10.63;7.97;;;;;;;;;;5003848;28;20099;-56
2022/02/16 02:48:13;;;;;;;9.20;7.55;;;;;;;;;;5003491;28;20034;-58
2022/02/16 02:50:38;;;;;;;11.07;8.23;;;;;;;;;;5000779;28;20048;-58
2022/02/16 02:53:03;;;;;;;11.03;8.00;;;;;;;;;;5013457;28;20575;-57
2022/02/16 02:55:28;;;;;;;12.47;8.63;;;;;;;;;;5000117;28;20780;-57
2022/02/16 02:57:54;;;;;;;10.90;7.90;;;;;;;;;;4984728;28;20015;-57
2022/02/16 03:00:19;;;;;;;10.47;8.60;;;;;;;;;;4996601;28;20036;-57
2022/02/16 03:02:44;;;;;;;9.90;8.10;;;;;;;;;;5003529;28;20964;-57
2022/02/16 03:05:11;;;;;;;10.73;8.10;;;;;;;;;;5002787;28;20305;-57
2022/02/16 03:07:36;;;;;;;11.32;8.90;;;;;;;;;;5003362;28;20648;-55
2022/02/16 03:10:02;;;;;;;10.27;7.90;;;;;;;;;;5003117;28;20018;-57
2022/02/16 03:12:27;;;;;;;10.10;7.53;;;;;;;;;;4985065;28;20049;-55
2022/02/16 03:14:52;;;;;;;9.90;7.90;;;;;;;;;;5003470;28;20786;-57
2022/02/16 03:17:17;;;;;;;10.90;8.10;;;;;;;;;;5003284;28;20073;-57
2022/02/16 03:19:43;;;;;;;11.07;8.60;;;;;;;;;;5002450;28;20849;-57
2022/02/16 03:22:08;;;;;;;10.27;8.10;;;;;;;;;;4982552;28;20034;-57
2022/02/16 03:24:34;;;;;;;9.35;7.70;;;;;;;;;;4995154;28;20815;-57
2022/02/16 03:27:00;;;;;;;10.30;7.70;;;;;;;;;;5002717;28;20025;-57
2022/02/16 03:29:25;;;;;;;9.88;7.88;;;;;;;;;;5003188;28;20722;-57
2022/02/16 03:31:50;;;;;;;10.18;8.07;;;;;;;;;;5002946;28;20024;-58
2022/02/16 03:34:15;;;;;;;11.73;8.53;;;;;;;;;;5002332;28;20087;-57
2022/02/16 03:36:40;;;;;;;9.50;8.15;;;;;;;;;;4985459;28;20327;-57
2022/02/16 03:39:07;;;;;;;10.00;8.47;;;;;;;;;;5002608;28;20045;-57
2022/02/16 03:41:32;;;;;;;11.18;8.13;;;;;;;;;;5002750;28;20284;-57
2022/02/16 03:43:57;;;;;;;10.47;7.77;;;;;;;;;;5001130;28;20022;-55
2022/02/16 03:46:22;;;;;;;10.47;8.23;;;;;;;;;;5002572;28;20288;-57
2022/02/16 03:48:47;;;;;;;10.70;8.30;;;;;;;;;;5000834;28;20046;-57
2022/02/16 03:51:13;;;;;;;10.03;8.27;;;;;;;;;;4979971;28;20022;-57
2022/02/16 03:53:38;;;;;;;9.90;7.63;;;;;;;;;;5000591;28;20265;-58
2022/02/16 03:56:04;;;;;;;10.32;7.80;;;;;;;;;;5002109;28;20030;-55
2022/02/16 03:58:29;;;;;;;12.40;8.02;;;;;;;;;;5001652;28;20033;-57
2022/02/16 04:00:54;;;;;;;10.33;7.70;;;;;;;;;;5002033;28;20076;-57
2022/02/16 04:03:19;;;;;;;9.63;7.70;;;;;;;;;;4983594;28;20105;-57
2022/02/16 04:05:44;;;;;;;10.77;8.03;;;;;;;;;;4982328;28;20041;-58
2022/02/16 04:08:10;;;;;;;11.93;8.63;;;;;;;;;;4982775;28;20026;-57
2022/02/16 04:10:35;;;;;;;11.90;8.53;;;;;;;;;;4982342;28;20145;-57
2022/02/16 04:13:00;;;;;;;11.25;8.38;;;;;;;;;;4982494;28;20269;-57
2022/02/16 04:15:25;;;;;;;9.23;7.50;;;;;;;;;;5017932;28;20017;-56
2022/02/16 04:17:51;;;;;;;10.73;8.37;;;;;;;;;;5001723;28;20336;-57
2022/02/16 04:20:16;;;;;;;10.35;7.72;;;;;;;;;;5001697;28;20265;-57
2022/02/16 04:22:42;;;;;;;9.60;7.70;;;;;;;;;;5002038;28;20499;-57
2022/02/16 04:25:07;;;;;;;9.65;7.78;;;;;;;;;;5001876;28;20311;-57
2022/02/16 04:27:33;;;;;;;8.95;7.20;;;;;;;;;;5001639;28;20025;-59
2022/02/16 04:29:58;;;;;;;10.77;7.97;;;;;;;;;;5001966;28;20400;-57
2022/02/16 04:32:23;;;;;;;10.57;7.90;;;;;;;;;;5001788;28;20313;-55
2022/02/16 04:34:48;;;;;;;8.60;6.73;;;;;;;;;;5001246;28;20284;-57
2022/02/16 04:37:13;;;;;;;8.93;7.53;;;;;;;;;;5001798;28;20086;-56
2022/02/16 04:39:39;;;;;;;8.90;7.00;;;;;;;;;;5001934;28;20021;-57
2022/02/16 04:42:04;;;;;;;10.50;8.40;;;;;;;;;;4984107;28;20165;-57
2022/02/16 04:44:29;;;;;;;10.02;7.57;;;;;;;;;;4976152;28;20116;-57
2022/02/16 04:46:54;;;;;;;9.27;6.90;;;;;;;;;;4998932;28;20532;-56
2022/02/16 04:49:20;;;;;;;9.43;7.50;;;;;;;;;;5000795;28;20026;-57
2022/02/16 04:51:45;;;;;;;10.20;7.90;;;;;;;;;;5001141;28;20790;-57
2022/02/16 04:54:10;;;;;;;9.17;7.67;;;;;;;;;;4997023;28;20519;-57
2022/02/16 04:56:35;;;;;;;9.70;7.20;;;;;;;;;;5015982;28;20635;-57
2022/02/16 04:59:01;;;;;;;9.47;7.23;;;;;;;;;;5005412;28;20768;-58
2022/02/16 05:01:26;;;;;;;10.23;7.38;;;;;;;;;;4998377;28;20596;-55
2022/02/16 05:03:51;;;;;;;8.97;6.57;;;;;;;;;;5001348;28;20029;-59
2022/02/16 05:06:18;;;;;;;9.77;7.20;;;;;;;;;;5000100;28;20300;-62
2022/02/16 05:08:43;;;;;;;9.77;7.28;;;;;;;;;;5000776;28;20045;-64
2022/02/16 05:11:08;;;;;;;9.03;7.33;;;;;;;;;;4989364;28;20493;-59
2022/02/16 05:13:33;;;;;;;10.13;7.50;;;;;;;;;;4998107;28;20578;-59
2022/02/16 05:15:58;;;;;;;9.27;7.10;;;;;;;;;;4999639;28;20034;-59
2022/02/16 05:18:24;;;;;;;9.10;7.17;;;;;;;;;;4998544;28;20518;-58
2022/02/16 05:20:49;;;;;;;8.87;7.00;;;;;;;;;;4997962;28;20044;-60
2022/02/16 05:23:14;;;;;;;11.05;7.70;;;;;;;;;;4980831;28;20344;-59
2022/02/16 05:25:40;;;;;;;8.63;6.70;;;;;;;;;;4987442;28;20042;-59
2022/02/16 05:28:05;;;;;;;9.20;7.28;;;;;;;;;;4993771;28;20027;-60
2022/02/16 05:30:30;;;;;;;10.37;7.60;;;;;;;;;;4992434;28;20061;-59
2022/02/16 05:32:55;;;;;;;8.20;6.90;;;;;;;;;;4998436;28;20256;-58
2022/02/16 05:35:20;;;;;;;9.30;6.67;;;;;;;;;;4998078;28;20350;-59
2022/02/16 05:37:46;;;;;;;9.83;7.30;;;;;;;;;;4992796;28;21120;-56
2022/02/16 05:40:11;;;;;;;9.73;7.53;;;;;;;;;;4990960;28;20397;-60
2022/02/16 05:42:36;;;;;;;9.88;7.13;;;;;;;;;;4992831;28;20292;-58
2022/02/16 05:45:02;;;;;;;10.68;7.25;;;;;;;;;;4998877;28;20040;-58
2022/02/16 05:47:27;;;;;;;10.27;7.05;;;;;;;;;;5002242;28;20058;-58
2022/02/16 05:49:52;;;;;;;8.83;6.80;;;;;;;;;;5004265;28;20033;-57
2022/02/16 05:52:18;;;;;;;7.90;6.87;;;;;;;;;;5004229;28;21345;-58
2022/02/16 05:54:43;;;;;;;8.43;7.17;;;;;;;;;;5003910;28;20483;-57
2022/02/16 05:57:08;;;;;;;7.53;6.20;;;;;;;;;;4999758;28;20275;-57
2022/02/16 05:59:34;;;;;;;9.13;6.53;;;;;;;;;;5002388;28;20354;-55
2022/02/16 06:02:04;;;;;;;10.73;6.53;;;;;;;;;;5003006;28;20825;-57
2022/02/16 06:04:32;;;;;;;8.60;6.93;;;;;;;;;;5003185;28;20070;-57
2022/02/16 06:06:58;;;;;;;9.20;6.35;;;;;;;;;;5004141;28;20038;-56
2022/02/16 06:09:23;;;;;;;8.13;6.47;;;;;;;;;;5003950;28;20084;-57
2022/02/16 06:11:48;;;;;;;7.60;6.30;;;;;;;;;;5003046;28;20092;-57
2022/02/16 06:14:13;;;;;;;8.40;6.70;;;;;;;;;;5003697;28;20276;-58
2022/02/16 06:16:38;;;;;;;9.57;6.77;;;;;;;;;;5002939;28;20284;-58
2022/02/16 06:19:04;;;;;;;7.70;6.53;;;;;;;;;;5003707;28;20021;-57
2022/02/16 06:21:29;;;;;;;9.03;6.67;;;;;;;;;;5002690;28;20411;-57
2022/02/16 06:23:54;;;;;;;7.00;6.00;;;;;;;;;;5003124;28;20718;-57
2022/02/16 06:26:19;;;;;;;7.57;6.20;;;;;;;;;;4976396;28;20713;-57
2022/02/16 06:28:45;;;;;;;7.30;5.90;;;;;;;;;;4994931;28;20627;-56
2022/02/16 06:31:10;;;;;;;8.02;6.53;;;;;;;;;;4989935;28;20488;-55
2022/02/16 06:33:35;;;;;;;8.17;6.60;;;;;;;;;;5001842;28;20025;-56
2022/02/16 06:36:00;;;;;;;7.97;6.40;;;;;;;;;;5002643;28;20013;-57
2022/02/16 06:38:26;;;;;;;7.43;6.38;;;;;;;;;;5002707;28;20106;-55
2022/02/16 06:40:51;;;;;;;8.63;6.13;;;;;;;;;;5002585;28;20121;-57
2022/02/16 06:43:16;;;;;;;8.80;5.90;;;;;;;;;;4999347;28;20093;-55
2022/02/16 06:45:41;;;;;;;7.63;6.07;;;;;;;;;;5002589;28;20110;-56
2022/02/16 06:48:07;;;;;;;7.65;6.40;;;;;;;;;;5002372;28;20343;-55
2022/02/16 06:50:32;;;;;;;7.63;6.57;;;;;;;;;;5001718;28;20093;-56
2022/02/16 06:52:57;;;;;;;7.50;6.50;;;;;;;;;;5002918;28;20524;-55
2022/02/16 06:55:23;;;;;;;7.33;6.30;;;;;;;;;;5002524;28;20092;-54
2022/02/16 06:57:48;;;;;;;7.07;6.20;;;;;;;;;;5000483;28;20076;-55
2022/02/16 07:00:13;;;;;;;7.10;6.10;;;;;;;;;;5001999;28;20025;-57
2022/02/16 07:02:42;;;;;;;6.95;6.00;;;;;;;;;;5002228;28;20272;-57
2022/02/16 07:05:08;;;;;;;7.20;6.18;;;;;;;;;;5001229;28;20029;-58
2022/02/16 07:07:33;;;;;;;7.00;6.18;;;;;;;;;;5002200;28;20104;-55
2022/02/16 07:09:58;;;;;;;7.40;6.57;;;;;;;;;;5002400;28;20018;-56
2022/02/16 07:12:23;;;;;;;6.93;5.60;;;;;;;;;;5001608;28;20263;-56
2022/02/16 07:14:53;;;;;;;7.23;6.17;;;;;;;;;;4984024;28;20025;-55
2022/02/16 07:17:19;;;;;;;7.35;6.03;;;;;;;;;;4990482;28;20331;-55
2022/02/16 07:19:44;;;;;;;7.10;6.13;;;;;;;;;;4999121;28;20829;-56
2022/02/16 07:22:09;;;;;;;7.60;6.13;;;;;;;;;;4995514;28;20337;-56
2022/02/16 07:24:34;;;;;;;8.47;6.40;;;;;;;;;;4986905;28;20124;-55
2022/02/16 07:26:59;;;;;;;7.87;6.10;;;;;;;;;;4980253;28;20014;-56
2022/02/16 07:29:26;;;;;;;7.25;6.35;;;;;;;;;;4985656;28;20101;-54
2022/02/16 07:31:51;;;;;;;8.50;6.50;;;;;;;;;;4988008;28;20484;-55
2022/02/16 07:34:19;;;;;;;7.63;6.30;;;;;;;;;;4994679;28;20033;-56
2022/02/16 07:36:44;;;;;;;7.85;6.38;;;;;;;;;;4980553;28;20089;-55
2022/02/16 07:39:09;;;;;;;8.57;6.67;;;;;;;;;;4982150;28;20029;-55
2022/02/16 07:41:34;;;;;;;8.30;6.60;;;;;;;;;;4987233;28;20083;-55
2022/02/16 07:44:00;;;;;;;7.90;6.25;;;;;;;;;;4982349;28;20030;-56
2022/02/16 07:46:26;;;;;;;8.00;6.07;;;;;;;;;;4993452;28;20631;-56
2022/02/16 07:48:51;;;;;;;8.82;6.85;;;;;;;;;;4999219;28;20915;-56
2022/02/16 07:51:16;;;;;;;8.35;7.20;;;;;;;;;;4991791;28;20104;-56
2022/02/16 07:53:41;;;;;;;7.83;6.73;;;;;;;;;;4990892;28;20025;-56
2022/02/16 07:56:07;;;;;;;8.57;6.60;;;;;;;;;;4990619;28;21107;-56
2022/02/16 07:58:32;;;;;;;7.33;5.97;;;;;;;;;;4990901;28;20265;-56
2022/02/16 08:00:57;;;;;;;8.27;6.82;;;;;;;;;;4993366;28;20018;-57
2022/02/16 08:03:22;;;;;;;8.73;7.18;;;;;;;;;;4988185;28;20037;-56
2022/02/16 08:05:48;;;;;;;8.10;6.53;;;;;;;;;;4988576;28;20947;-56
2022/02/16 08:08:13;;;;;;;8.10;6.30;;;;;;;;;;5002599;28;20272;-57
2022/02/16 08:10:38;;;;;;;8.90;6.80;;;;;;;;;;5001399;28;20147;-57
2022/02/16 08:13:05;;;;;;;8.02;6.35;;;;;;;;;;4986640;28;20244;-57
2022/02/16 08:15:31;;;;;;;8.75;6.88;;;;;;;;;;4987483;28;20086;-57
2022/02/16 08:17:58;;;;;;;8.45;6.82;;;;;;;;;;4985979;28;20053;-56
2022/02/16 08:20:23;;;;;;;8.38;6.72;;;;;;;;;;4985368;28;20030;-57
2022/02/16 08:22:49;;;;;;;8.70;6.57;;;;;;;;;;4985425;28;20037;-57
2022/02/16 08:25:14;;;;;;;9.82;6.65;;;;;;;;;;4982697;28;20042;-55
2022/02/16 08:27:41;;;;;;;7.63;6.47;;;;;;;;;;4965055;28;20053;-57
2022/02/16 08:30:07;;;;;;;7.55;6.32;;;;;;;;;;4982402;28;20496;-56
2022/02/16 08:32:32;;;;;;;7.65;6.75;;;;;;;;;;4982252;28;20018;-57
2022/02/16 08:34:57;;;;;;;9.20;7.10;;;;;;;;;;4981440;28;20025;-56
2022/02/16 08:37:23;;;;;;;8.23;6.50;;;;;;;;;;4983492;28;20014;-56
2022/02/16 08:39:48;;;;;;;9.83;7.10;;;;;;;;;;4981920;28;20029;-57
2022/02/16 08:42:13;;;;;;;8.50;7.18;;;;;;;;;;4981882;28;20278;-56
2022/02/16 08:44:38;;;;;;;8.18;6.60;;;;;;;;;;4981865;28;20037;-56
2022/02/16 08:47:04;;;;;;;8.98;6.70;;;;;;;;;;4981184;28;20058;-56
2022/02/16 08:49:29;;;;;;;8.20;6.80;;;;;;;;;;4974212;28;20544;-56
2022/02/16 08:51:54;;;;;;;7.63;6.07;;;;;;;;;;4984738;28;20113;-57
2022/02/16 08:54:20;;;;;;;7.30;6.43;;;;;;;;;;4985896;28;20017;-57
2022/02/16 08:56:46;;;;;;;7.60;6.40;;;;;;;;;;4981547;28;20018;-57
2022/02/16 08:59:12;;;;;;;9.20;6.03;;;;;;;;;;4986751;28;20291;-57
2022/02/16 09:01:37;;;;;;;8.50;6.85;;;;;;;;;;4985464;28;20158;-55
2022/02/16 09:04:03;;;;;;;8.60;6.40;;;;;;;;;;4985472;28;20019;-57
2022/02/16 09:06:28;;;;;;;8.23;6.25;;;;;;;;;;4982565;28;20297;-55
2022/02/16 09:08:53;;;;;;;10.82;6.70;;;;;;;;;;4984149;28;20022;-55
2022/02/16 09:11:18;;;;;;;7.30;6.20;;;;;;;;;;4983678;28;20026;-56
2022/02/16 09:13:44;;;;;;;7.90;6.35;;;;;;;;;;4985077;28;20026;-56
2022/02/16 09:16:09;;;;;;;8.02;6.72;;;;;;;;;;4989582;28;20057;-57
2022/02/16 09:18:35;;;;;;;8.23;6.43;;;;;;;;;;4987835;28;20482;-59
2022/02/16 09:21:05;;;;;;;9.03;6.30;;;;;;;;;;4985348;28;20746;-55
2022/02/16 09:23:30;;;;;;;;;;;;;;;;;;4985593;28;20293;-55
2022/02/16 09:25:55;;;;;;;7.68;5.97;;;;;;;;;;4981405;28;19976;-56
2022/02/16 09:28:20;;;;;;;8.60;6.10;;;;;;;;;;4983514;28;20489;-55
2022/02/16 09:30:45;;;;;;;8.73;6.40;;;;;;;;;;4981768;28;20469;-56
2022/02/16 09:33:11;;;;;;;8.00;6.40;;;;;;;;;;4984401;28;20497;-56
2022/02/16 09:35:36;;;;;;;7.50;6.37;;;;;;;;;;4983171;28;20488;-56
2022/02/16 09:38:01;;;;;;;8.20;7.05;;;;;;;;;;4999957;28;20257;-57
2022/02/16 09:40:28;;;;;;;9.63;6.67;;;;;;;;;;5000746;28;20030;-56
2022/02/16 09:42:54;;;;;;;8.77;6.55;;;;;;;;;;5000511;28;20300;-60
2022/02/16 09:45:19;;;;;;;7.28;6.03;;;;;;;;;;5000531;28;20866;-56
2022/02/16 09:47:44;;;;;;;9.67;6.67;;;;;;;;;;4974448;28;20189;-57
2022/02/16 09:50:11;;;;;;;7.18;6.20;;;;;;;;;;4985944;28;20037;-54
2022/02/16 09:52:37;;;;;;;9.43;6.75;;;;;;;;;;4990233;28;20103;-56
2022/02/16 09:55:02;;;;;;;6.95;5.88;;;;;;;;;;4997160;28;20595;-58
2022/02/16 09:57:27;;;;;;;8.75;6.28;;;;;;;;;;4999336;28;20037;-58
2022/02/16 09:59:53;;;;;;;8.70;6.07;;;;;;;;;;4998538;28;20022;-57
2022/02/16 10:02:18;;;;;;;6.72;5.45;;;;;;;;;;4996741;28;20037;-54
2022/02/16 10:04:53;;;;;;;6.80;5.57;;;;;;;;;;4980155;28;20030;-53
2022/02/16 10:07:26;;;;;;;7.35;5.90;;;;;;;;;;4998436;28;20034;-56
2022/02/16 10:09:51;;;;;;;7.20;5.25;;;;;;;;;;5000684;28;20013;-57
2022/02/16 10:12:16;;;;;;;6.97;5.60;;;;;;;;;;5000115;28;20051;-55
2022/02/16 10:14:41;;;;;;;6.87;5.80;;;;;;;;;;4954771;28;20030;-55
2022/02/16 10:17:15;;;;;;;7.57;5.70;;;;;;;;;;4995730;28;20801;-56
2022/02/16 10:19:53;;;;;;;8.00;5.93;;;;;;;;;;4999583;28;20304;-56
2022/02/16 10:22:19;;;;;;;7.57;6.03;;;;;;;;;;5000510;28;20599;-54
2022/02/16 10:24:45;;;;;;;8.27;5.80;;;;;;;;;;5000746;28;20072;-57
2022/02/16 10:27:12;;;;;;;26.08;6.95;;;;;;;;;;4999133;28;20552;-57
2022/02/16 10:29:37;;;;;;;8.27;5.70;;;;;;;;;;4998042;28;20064;-55
2022/02/16 10:32:03;;;;;;;6.40;5.30;;;;;;;;;;4997251;28;20029;-57
2022/02/16 10:34:47;;;;;;;7.20;5.95;;;;;;;;;;4982253;28;20014;-56
2022/02/16 10:37:13;;;;;;;7.57;5.70;;;;;;;;;;5000403;28;20022;-57
2022/02/16 10:39:38;;;;;;;7.18;5.80;;;;;;;;;;5002955;28;20022;-57
2022/02/16 10:42:04;;;;;;;9.33;6.10;;;;;;;;;;5003235;28;20080;-57
2022/02/16 10:44:31;;;;;;;6.63;5.45;;;;;;;;;;4976196;28;20030;-56
2022/02/16 10:47:03;;;;;;;6.85;5.78;;;;;;;;;;4966096;28;20050;-56
2022/02/16 10:49:29;;;;;;;7.82;5.88;;;;;;;;;;4981797;28;20026;-56
2022/02/16 10:52:05;;;;;;;7.70;6.43;;;;;;;;;;5003558;28;20032;-56
2022/02/16 10:54:30;;;;;;;7.78;5.65;;;;;;;;;;5003733;28;20033;-55
2022/02/16 10:56:55;;;;;;;6.23;5.37;;;;;;;;;;4985318;28;20029;-55
2022/02/16 10:59:20;;;;;;;7.03;5.77;;;;;;;;;;4986040;28;20847;-54
2022/02/16 11:01:45;;;;;;;6.97;5.60;;;;;;;;;;4983344;28;20469;-55
2022/02/16 11:04:13;;;;;;;6.30;5.50;;;;;;;;;;4999461;28;20276;-53
2022/02/16 11:06:43;;;;;;;7.45;5.20;;;;;;;;;;5003048;28;20296;-54
2022/02/16 11:09:18;;;;;;;7.00;5.68;;;;;;;;;;5002681;28;20036;-54
2022/02/16 11:11:44;;;;;;;6.57;5.30;;;;;;;;;;5002047;28;20018;-54
2022/02/16 11:14:10;;;;;;;7.18;5.63;;;;;;;;;;4994918;28;20041;-55
2022/02/16 11:16:35;;;;;;;7.65;5.65;;;;;;;;;;4965863;28;20015;-55
2022/02/16 11:19:01;;;;;;;6.53;5.65;;;;;;;;;;4983220;28;20088;-55
2022/02/16 11:21:30;;;;;;;7.63;5.60;;;;;;;;;;4986359;28;20014;-54
2022/02/16 11:23:56;;;;;;;7.22;5.40;;;;;;;;;;4980415;28;20053;-55
2022/02/16 11:26:28;;;;;;;7.50;5.57;;;;;;;;;;4991119;28;20591;-57
2022/02/16 11:28:53;;;;;;;6.93;5.93;;;;;;;;;;5001289;28;20034;-55
2022/02/16 11:31:25;;;;;;;7.18;5.45;;;;;;;;;;5001991;28;20038;-54
2022/02/16 11:34:09;;;;;;;7.22;5.20;;;;;;;;;;4996060;28;20029;-54
2022/02/16 11:36:49;;;;;;;7.35;5.38;;;;;;;;;;4981852;28;20130;-55
2022/02/16 11:39:33;;;;;;;7.22;5.88;;;;;;;;;;4982750;28;20018;-54
2022/02/16 11:41:59;;;;;;;7.00;5.38;;;;;;;;;;4981452;28;20582;-56
2022/02/16 11:44:24;;;;;;;6.55;5.55;;;;;;;;;;4981493;28;20053;-55
2022/02/16 11:46:54;;;;;;;7.63;5.53;;;;;;;;;;4968407;28;20042;-55
2022/02/16 11:49:25;;;;;;;6.80;5.63;;;;;;;;;;4981097;28;20057;-54
2022/02/16 11:51:50;;;;;;;8.98;5.55;;;;;;;;;;4987270;28;20033;-55
2022/02/16 11:54:34;;;;;;;8.00;5.47;;;;;;;;;;4993578;28;20033;-55
2022/02/16 11:57:19;;;;;;;8.27;6.32;;;;;;;;;;4995768;28;20364;-55
2022/02/16 11:59:54;;;;;;;8.73;5.82;;;;;;;;;;4984965;28;20045;-54
2022/02/16 12:02:19;;;;;;;9.02;6.03;;;;;;;;;;5002096;28;20818;-55
2022/02/16 12:04:48;;;;;;;6.93;5.80;;;;;;;;;;5000248;28;20117;-54
2022/02/16 12:07:29;;;;;;;7.65;5.80;;;;;;;;;;5001943;28;21236;-56
2022/02/16 12:10:13;;;;;;;7.68;5.80;;;;;;;;;;4980524;28;20397;-55
2022/02/16 12:12:39;;;;;;;7.53;6.05;;;;;;;;;;4992428;28;20058;-56
2022/02/16 12:15:04;;;;;;;9.35;5.47;;;;;;;;;;4986783;28;20465;-55
2022/02/16 12:17:29;;;;;;;9.07;5.65;;;;;;;;;;4999665;28;20018;-55
2022/02/16 12:19:54;;;;;;;9.40;5.67;;;;;;;;;;4979932;28;20455;-56
2022/02/16 12:22:20;;;;;;;7.93;6.10;;;;;;;;;;4967790;28;20422;-56
2022/02/16 12:24:45;;;;;;;8.43;5.90;;;;;;;;;;4992943;28;20492;-55
2022/02/16 12:27:11;;;;;;;7.37;5.53;;;;;;;;;;5001041;28;20065;-55
2022/02/16 12:29:39;;;;;;;9.82;5.65;;;;;;;;;;4984370;28;20033;-56
2022/02/16 12:32:04;;;;;;;8.15;5.78;;;;;;;;;;5001371;28;20432;-54
2022/02/16 12:34:30;;;;;;;8.80;6.00;;;;;;;;;;5000354;28;20025;-55
2022/02/16 12:36:55;;;;;;;8.52;5.80;;;;;;;;;;5000860;28;20479;-55
2022/02/16 12:39:21;;;;;;;9.30;6.03;;;;;;;;;;5001257;28;20083;-55
2022/02/16 12:41:46;;;;;;;9.43;6.40;;;;;;;;;;5000515;28;20524;-54
2022/02/16 12:44:15;;;;;;;9.43;5.85;;;;;;;;;;5000867;28;20034;-56
2022/02/16 12:46:42;;;;;;;8.57;6.53;;;;;;;;;;5000949;28;20512;-55
2022/02/16 12:49:10;;;;;;;9.43;5.72;;;;;;;;;;4986228;28;20042;-55
2022/02/16 12:51:36;;;;;;;8.40;5.70;;;;;;;;;;4999453;28;20488;-55
2022/02/16 12:54:03;;;;;;;9.82;5.88;;;;;;;;;;4972700;28;20024;-55
2022/02/16 12:56:31;;;;;;;7.45;5.22;;;;;;;;;;4993507;28;20029;-56
2022/02/16 12:58:57;;;;;;;8.25;5.55;;;;;;;;;;4982831;28;20037;-55
2022/02/16 13:01:29;;;;;;;7.95;5.47;;;;;;;;;;5001005;28;20030;-55
2022/02/16 13:04:01;;;;;;;8.50;5.32;;;;;;;;;;5000085;28;20495;-56
2022/02/16 13:06:34;;;;;;;7.43;5.43;;;;;;;;;;5000235;28;20570;-56
2022/02/16 13:09:00;;;;;;;7.70;5.68;;;;;;;;;;4983373;28;20113;-55
2022/02/16 13:11:25;;;;;;;9.13;5.70;;;;;;;;;;4999594;28;20109;-56
2022/02/16 13:13:50;;;;;;;7.50;5.70;;;;;;;;;;4996000;28;20105;-57
2022/02/16 13:16:18;;;;;;;8.17;5.70;;;;;;;;;;4984120;28;20113;-55
2022/02/16 13:18:44;;;;;;;9.73;5.68;;;;;;;;;;4974727;28;20033;-56
2022/02/16 13:21:13;;;;;;;8.65;6.10;;;;;;;;;;5000074;28;20033;-56
2022/02/16 13:23:38;;;;;;;8.43;6.03;;;;;;;;;;5000105;28;20036;-55
2022/02/16 13:26:10;;;;;;;6.53;5.47;;;;;;;;;;4979276;28;20402;-55
2022/02/16 13:28:35;;;;;;;8.43;5.82;;;;;;;;;;4990623;28;20026;-56
2022/02/16 13:31:23;;;;;;;7.60;5.28;;;;;;;;;;4998320;28;20100;-54
2022/02/16 13:33:55;;;;;;;7.95;5.20;;;;;;;;;;4991136;28;20061;-55
2022/02/16 13:36:26;;;;;;;12.18;8.05;;;;;;;;;;4991691;28;20464;-54
2022/02/16 13:38:55;;;;;;;8.50;6.45;;;;;;;;;;5000359;28;20136;-56
2022/02/16 13:41:21;;;;;;;11.13;6.70;;;;;;;;;;5000001;28;20022;-54
2022/02/16 13:43:49;;;;;;;10.65;5.88;;;;;;;;;;4999425;28;20034;-55
2022/02/16 13:46:15;;;;;;;9.80;5.50;;;;;;;;;;4989521;28;20049;-53
2022/02/16 13:48:40;;;;;;;8.48;5.38;;;;;;;;;;4991245;28;21371;-55
2022/02/16 13:51:12;;;;;;;7.83;5.40;;;;;;;;;;4993955;28;20018;-54
2022/02/16 13:53:38;;;;;;;8.50;5.40;;;;;;;;;;4998975;28;20308;-54
2022/02/16 13:56:04;;;;;;;9.30;5.35;;;;;;;;;;4993870;28;20726;-54
2022/02/16 13:58:30;;;;;;;7.88;5.53;;;;;;;;;;4984373;28;20041;-54
2022/02/16 14:01:04;;;;;;;8.95;5.30;;;;;;;;;;4981628;28;20027;-55
2022/02/16 14:03:29;;;;;;;10.23;5.93;;;;;;;;;;4982673;28;20034;-55
2022/02/16 14:05:55;;;;;;;7.70;5.70;;;;;;;;;;4982384;28;20500;-55
2022/02/16 14:08:20;;;;;;;11.00;5.90;;;;;;;;;;4980784;28;20026;-56
2022/02/16 14:10:45;;;;;;;8.27;5.00;;;;;;;;;;4995492;28;20038;-55
2022/02/16 14:13:11;;;;;;;8.20;4.87;;;;;;;;;;5003630;28;20260;-54
2022/02/16 14:15:36;;;;;;;9.13;5.30;;;;;;;;;;4998421;28;20293;-55
2022/02/16 14:18:02;;;;;;;9.30;5.80;;;;;;;;;;4983786;28;20030;-55
2022/02/16 14:20:27;;;;;;;10.48;5.47;;;;;;;;;;4983517;28;20033;-55
2022/02/16 14:22:52;;;;;;;7.15;5.20;;;;;;;;;;4966308;28;20384;-55
2022/02/16 14:25:18;;;;;;;9.05;5.13;;;;;;;;;;4983534;28;20030;-54
2022/02/16 14:27:43;;;;;;;8.40;5.53;;;;;;;;;;4983063;28;20026;-55
2022/02/16 14:30:09;;;;;;;9.55;5.60;;;;;;;;;;4967074;28;20363;-55
2022/02/16 14:32:35;;;;;;;10.63;5.65;;;;;;;;;;4985237;28;20490;-55